Time;durP1;ratioP1;P1;durP2;ratioP2;P2;SDS_P1;SDS_P2;PMS_P1;PMS_P2;Temp;Humidity;BMP_temperature;BMP_pressure;BME280_temperature;BME280_humidity;BME280_pressure;Samples;Min_cycle;Max_cycle;Signal;HPM_P1;HPM_P2
2021/05/10 00:01:42;;;;;;;4.30;2.70;;;333.30;1920.00;;;;;;5017462;28;20030;-72
2021/05/10 00:04:08;;;;;;;3.13;2.30;;;333.30;1920.00;;;;;;5025394;28;20544;-73
2021/05/10 00:06:34;;;;;;;4.07;2.67;;;333.30;1920.00;;;;;;5014957;28;20045;-73
2021/05/10 00:09:01;;;;;;;4.32;2.83;;;333.30;1945.60;;;;;;5026125;28;20017;-72
2021/05/10 00:11:27;;;;;;;3.58;2.83;;;333.20;1945.60;;;;;;5022725;28;20022;-73
2021/05/10 00:13:55;;;;;;;10.45;2.83;;;333.20;1945.60;;;;;;5028980;28;20076;-72
2021/05/10 00:16:21;;;;;;;4.93;3.05;;;333.20;1945.60;;;;;;5029414;28;20386;-72
2021/05/10 00:18:47;;;;;;;6.63;2.90;;;333.10;1945.60;;;;;;5029814;28;20114;-72
2021/05/10 00:21:13;;;;;;;4.07;2.22;;;333.00;1971.20;;;;;;5021256;28;20020;-72
2021/05/10 00:23:39;;;;;;;4.35;2.47;;;333.10;1971.20;;;;;;5014348;28;20029;-72
2021/05/10 00:26:05;;;;;;;5.18;2.85;;;333.00;1971.20;;;;;;5026135;28;20092;-73
2021/05/10 00:28:31;;;;;;;3.78;3.13;;;333.10;1971.20;;;;;;5014044;28;20114;-71
2021/05/10 00:30:57;;;;;;;4.70;2.92;;;333.00;1971.20;;;;;;5004480;28;20038;-71
2021/05/10 00:33:23;;;;;;;6.22;3.20;;;333.00;1971.20;;;;;;5004585;28;20109;-72
2021/05/10 00:35:48;;;;;;;5.25;3.10;;;332.90;1971.20;;;;;;5003611;28;20391;-72
2021/05/10 00:38:14;;;;;;;4.80;3.20;;;333.00;1996.80;;;;;;5011707;28;20036;-72
2021/05/10 00:40:40;;;;;;;4.20;3.05;;;332.90;1996.80;;;;;;5002405;28;20729;-72
2021/05/10 00:43:06;;;;;;;6.28;2.97;;;332.90;1996.80;;;;;;5007278;28;20030;-72
2021/05/10 00:45:33;;;;;;;3.53;2.58;;;332.90;1996.80;;;;;;5011102;28;20026;-70
2021/05/10 00:47:59;;;;;;;5.55;2.63;;;332.90;1996.80;;;;;;4995827;28;20394;-70
2021/05/10 00:50:25;;;;;;;4.10;2.85;;;333.00;1996.80;;;;;;5006584;28;20130;-70
2021/05/10 00:52:51;;;;;;;4.55;2.58;;;333.00;1996.80;;;;;;5001034;28;20407;-70
2021/05/10 00:55:18;;;;;;;5.47;2.92;;;333.00;1996.80;;;;;;5015951;28;20427;-70
2021/05/10 00:57:49;;;;;;;4.43;2.63;;;332.90;1996.80;;;;;;5031170;28;20095;-70
2021/05/10 01:00:16;;;;;;;4.97;2.50;;;332.90;1996.80;;;;;;5019073;28;20061;-70
2021/05/10 01:02:43;;;;;;;4.57;2.95;;;332.90;1996.80;;;;;;5024226;28;20049;-70
2021/05/10 01:05:10;;;;;;;3.50;2.33;;;332.90;1996.80;;;;;;5021818;28;20429;-70
2021/05/10 01:07:38;;;;;;;3.35;2.65;;;332.80;1996.80;;;;;;5024301;28;20072;-70
2021/05/10 01:10:11;;;;;;;3.63;2.30;;;332.80;1996.80;;;;;;5011019;28;20048;-70
2021/05/10 01:12:37;;;;;;;3.75;2.88;;;332.80;1996.80;;;;;;5029651;28;20089;-70
2021/05/10 01:15:07;;;;;;;3.58;2.70;;;332.80;1996.80;;;;;;5030247;28;20465;-70
2021/05/10 01:17:34;;;;;;;3.92;2.50;;;332.80;1996.80;;;;;;5028168;28;20461;-70
2021/05/10 01:20:02;;;;;;;3.55;2.30;;;332.80;1996.80;;;;;;5012966;28;20478;-70
2021/05/10 01:22:42;;;;;;;6.45;2.90;;;332.80;1996.80;;;;;;5024211;28;20060;-70
2021/05/10 01:25:14;;;;;;;4.10;2.53;;;332.80;1996.80;;;;;;5000804;28;20022;-70
2021/05/10 01:27:41;;;;;;;3.97;2.80;;;332.80;2022.40;;;;;;5025238;28;20078;-70
2021/05/10 01:30:09;;;;;;;6.72;3.10;;;332.80;2022.40;;;;;;5031335;28;20454;-70
2021/05/10 01:32:35;;;;;;;5.93;3.05;;;308.10;1996.80;;;;;;5046618;28;20518;-70
2021/05/10 01:35:04;;;;;;;4.28;2.95;;;308.10;1996.80;;;;;;5019236;28;20492;-70
2021/05/10 01:37:30;;;;;;;4.30;2.38;;;308.00;1996.80;;;;;;5043668;28;20063;-70
2021/05/10 01:39:55;;;;;;;4.53;2.90;;;308.00;1996.80;;;;;;5045201;28;20490;-70
2021/05/10 01:42:21;;;;;;;4.30;2.67;;;307.90;2022.40;;;;;;5018597;28;20529;-70
2021/05/10 01:44:47;;;;;;;5.85;2.92;;;307.90;2022.40;;;;;;5021252;28;20026;-70
2021/05/10 01:47:12;;;;;;;5.15;2.92;;;307.90;1996.80;;;;;;5025946;28;20559;-71
2021/05/10 01:49:38;;;;;;;5.03;3.28;;;307.90;2022.40;;;;;;5012229;28;20490;-70
2021/05/10 01:52:04;;;;;;;7.40;2.40;;;307.80;1996.80;;;;;;5025585;28;20037;-70
2021/05/10 01:54:30;;;;;;;3.88;2.25;;;307.80;1996.80;;;;;;5019212;28;20025;-70
2021/05/10 01:56:56;;;;;;;3.90;2.45;;;307.80;1996.80;;;;;;5031255;28;20024;-70
2021/05/10 01:59:21;;;;;;;3.70;2.42;;;307.80;1996.80;;;;;;5031186;28;20024;-70
2021/05/10 02:01:47;;;;;;;5.55;2.35;;;307.80;1996.80;;;;;;5030344;28;20037;-70
2021/05/10 02:04:13;;;;;;;5.93;2.83;;;307.80;1996.80;;;;;;5014060;28;20076;-70
2021/05/10 02:06:39;;;;;;;3.78;2.67;;;307.80;1996.80;;;;;;5031627;28;20025;-70
2021/05/10 02:09:04;;;;;;;3.35;2.50;;;307.80;1996.80;;;;;;5031597;28;20478;-70
2021/05/10 02:11:30;;;;;;;4.30;2.85;;;307.70;1996.80;;;;;;5025458;28;20041;-70
2021/05/10 02:13:56;;;;;;;5.43;3.30;;;307.70;1996.80;;;;;;5028374;28;20458;-70
2021/05/10 02:16:22;;;;;;;3.80;2.58;;;307.70;1996.80;;;;;;5037691;28;20014;-69
2021/05/10 02:18:48;;;;;;;3.92;2.28;;;307.80;1996.80;;;;;;5017842;28;20022;-70
2021/05/10 02:21:14;;;;;;;4.97;2.97;;;307.70;1996.80;;;;;;5017871;28;20058;-70
2021/05/10 02:23:40;;;;;;;4.85;2.60;;;307.70;1996.80;;;;;;5026151;28;20029;-70
2021/05/10 02:26:07;;;;;;;7.03;2.92;;;307.80;1996.80;;;;;;5030002;28;20032;-70
2021/05/10 02:28:33;;;;;;;4.15;2.80;;;307.80;1996.80;;;;;;5022958;28;20026;-70
2021/05/10 02:31:01;;;;;;;3.85;2.28;;;307.70;1996.80;;;;;;5014450;28;20066;-70
2021/05/10 02:33:30;;;;;;;4.20;2.80;;;307.80;1996.80;;;;;;5021489;28;20013;-70
2021/05/10 02:35:56;;;;;;;3.05;2.17;;;307.70;1996.80;;;;;;5035083;28;20500;-70
2021/05/10 02:38:23;;;;;;;6.57;3.05;;;307.70;1996.80;;;;;;5035709;28;20021;-70
2021/05/10 02:40:50;;;;;;;4.18;2.50;;;307.70;1996.80;;;;;;5042068;28;20021;-70
2021/05/10 02:43:17;;;;;;;3.70;2.30;;;307.60;2022.40;;;;;;5010379;28;20124;-70
2021/05/10 02:45:43;;;;;;;4.15;2.78;;;307.60;2022.40;;;;;;5017827;28;20026;-70
2021/05/10 02:48:09;;;;;;;3.65;2.53;;;307.60;2022.40;;;;;;5017191;28;20489;-70
2021/05/10 02:50:35;;;;;;;5.80;3.50;;;307.60;2022.40;;;;;;5034701;28;20021;-70
2021/05/10 02:53:01;;;;;;;4.20;2.72;;;307.50;2022.40;;;;;;5015005;28;20382;-70
2021/05/10 02:55:28;;;;;;;3.55;2.75;;;307.50;2022.40;;;;;;5026302;28;20026;-70
2021/05/10 02:57:54;;;;;;;3.92;3.20;;;307.50;2022.40;;;;;;5006528;28;20025;-70
2021/05/10 03:00:23;;;;;;;5.45;2.88;;;307.50;2022.40;;;;;;5035011;28;20030;-70
2021/05/10 03:02:50;;;;;;;3.92;2.42;;;307.50;2022.40;;;;;;5016792;28;20021;-70
2021/05/10 03:05:16;;;;;;;6.20;2.55;;;307.50;2022.40;;;;;;5026467;28;20021;-70
2021/05/10 03:07:42;;;;;;;5.25;2.88;;;307.50;2022.40;;;;;;5015186;28;20386;-70
2021/05/10 03:10:15;;;;;;;4.72;2.65;;;307.50;2022.40;;;;;;5028420;28;20018;-70
2021/05/10 03:12:41;;;;;;;4.38;2.60;;;307.50;1996.80;;;;;;5014363;28;20105;-69
2021/05/10 03:15:12;;;;;;;3.78;2.78;;;307.60;1996.80;;;;;;5017052;28;20013;-70
2021/05/10 03:17:39;;;;;;;5.35;3.05;;;307.60;1996.80;;;;;;5034599;28;20474;-70
2021/05/10 03:20:08;;;;;;;5.80;2.60;;;307.50;1996.80;;;;;;5034604;28;20025;-70
2021/05/10 03:22:36;;;;;;;3.65;2.25;;;307.50;1996.80;;;;;;5034609;28;20029;-72
2021/05/10 03:25:03;;;;;;;4.47;2.85;;;307.60;1996.80;;;;;;5033017;28;20385;-72
2021/05/10 03:27:35;;;;;;;6.63;2.88;;;307.60;1996.80;;;;;;5011520;28;20022;-73
2021/05/10 03:30:01;;;;;;;3.97;2.78;;;307.60;1996.80;;;;;;5028535;28;20050;-72
2021/05/10 03:32:27;;;;;;;5.20;2.35;;;307.60;1996.80;;;;;;5031348;28;20029;-73
2021/05/10 03:34:52;;;;;;;5.22;3.20;;;307.70;1996.80;;;;;;5020763;28;20024;-73
2021/05/10 03:37:18;;;;;;;5.72;2.55;;;307.70;1996.80;;;;;;5034071;28;20029;-73
2021/05/10 03:39:44;;;;;;;4.72;2.95;;;307.80;1971.20;;;;;;5028332;28;20360;-72
2021/05/10 03:42:09;;;;;;;3.65;2.28;;;307.90;1971.20;;;;;;5005135;28;20026;-72
2021/05/10 03:44:35;;;;;;;5.32;2.88;;;308.00;1945.60;;;;;;5022084;28;20030;-73
2021/05/10 03:47:01;;;;;;;7.85;2.97;;;308.00;1945.60;;;;;;5031600;28;20071;-73
2021/05/10 03:49:26;;;;;;;3.95;2.30;;;308.10;1945.60;;;;;;5026773;28;20030;-73
2021/05/10 03:51:52;;;;;;;5.20;2.45;;;332.80;1945.60;;;;;;5029414;28;20096;-73
2021/05/10 03:54:18;;;;;;;4.60;2.63;;;332.90;1945.60;;;;;;5034153;28;20458;-73
2021/05/10 03:56:43;;;;;;;5.45;2.15;;;333.00;1920.00;;;;;;5033995;28;20489;-73
2021/05/10 03:59:09;;;;;;;6.25;2.58;;;333.00;1920.00;;;;;;5032203;28;20033;-73
2021/05/10 04:01:35;;;;;;;2.70;1.70;;;333.10;1920.00;;;;;;5043607;28;20139;-72
2021/05/10 04:04:37;;;;;;;4.32;2.92;;;333.10;1920.00;;;;;;5018206;28;20037;-72
2021/05/10 04:07:17;;;;;;;4.85;3.03;;;333.20;1920.00;;;;;;5046527;28;20162;-72
2021/05/10 04:09:52;;;;;;;6.22;2.72;;;333.30;1920.00;;;;;;5022191;28;20026;-73
2021/05/10 04:15:12;;;;;;;8.07;2.40;;;333.50;1894.40;;;;;;4951717;29;20109;-72
2021/05/10 04:17:38;;;;;;;3.40;2.25;;;333.50;1894.40;;;;;;4932513;29;20039;-72
2021/05/10 04:20:05;;;;;;;4.93;2.72;;;333.70;1868.80;;;;;;4929286;29;20050;-73
2021/05/10 04:22:30;;;;;;;7.88;2.72;;;333.70;1868.80;;;;;;4950389;29;20027;-73
2021/05/10 04:24:56;;;;;;;7.35;3.53;;;358.40;1868.80;;;;;;4939781;29;20047;-73
2021/05/10 04:27:22;;;;;;;8.18;2.90;;;358.60;1868.80;;;;;;4951838;29;20480;-73
2021/05/10 04:29:47;;;;;;;5.53;2.70;;;358.70;1843.20;;;;;;4949499;29;20047;-73
2021/05/10 04:32:13;;;;;;;6.85;2.45;;;358.70;1843.20;;;;;;4951690;29;20048;-73
2021/05/10 04:34:39;;;;;;;7.70;2.85;;;358.80;1843.20;;;;;;4949875;29;20027;-73
2021/05/10 04:37:04;;;;;;;14.57;3.40;;;358.90;1817.60;;;;;;4931026;29;20513;-73
2021/05/10 04:39:30;;;;;;;4.78;2.45;;;359.10;1817.60;;;;;;4943338;29;20098;-73
2021/05/10 04:41:56;;;;;;;7.75;2.63;;;359.20;1792.00;;;;;;4937272;29;20130;-73
2021/05/10 04:44:21;;;;;;;4.78;2.47;;;384.00;1766.40;;;;;;4917851;29;20040;-73
2021/05/10 04:46:47;;;;;;;6.55;2.10;;;384.20;1740.80;;;;;;4933151;29;20437;-73
2021/05/10 04:49:13;;;;;;;8.65;2.20;;;384.30;1740.80;;;;;;4939369;29;20038;-73
2021/05/10 04:51:39;;;;;;;3.47;1.70;;;384.50;1689.60;;;;;;4988632;28;20123;-73
2021/05/10 04:54:05;;;;;;;3.88;2.10;;;384.70;1664.00;;;;;;5046075;28;20025;-73
2021/05/10 04:56:30;;;;;;;2.28;1.42;;;384.90;1638.40;;;;;;5041464;28;20048;-73
2021/05/10 04:58:56;;;;;;;5.60;2.00;;;409.70;1612.80;;;;;;5044284;28;20061;-72
2021/05/10 05:01:22;;;;;;;5.57;2.17;;;409.90;1612.80;;;;;;5042835;28;20415;-73
2021/05/10 05:03:47;;;;;;;5.88;1.55;;;410.00;1587.20;;;;;;5016112;28;20037;-73
2021/05/10 05:06:13;;;;;;;2.92;1.80;;;410.10;1536.00;;;;;;5025403;28;20024;-73
2021/05/10 05:08:39;;;;;;;3.13;1.73;;;410.30;1536.00;;;;;;5018156;28;20469;-73
2021/05/10 05:11:05;;;;;;;3.92;1.75;;;410.40;1536.00;;;;;;5017085;28;20037;-73
2021/05/10 05:13:31;;;;;;;3.45;1.90;;;435.20;1510.40;;;;;;5011548;28;20053;-73
2021/05/10 05:15:56;;;;;;;2.90;1.90;;;435.40;1484.80;;;;;;5028788;28;20072;-72
2021/05/10 05:18:22;;;;;;;4.03;1.90;;;435.50;1484.80;;;;;;5007996;28;20021;-73
2021/05/10 05:20:49;;;;;;;4.55;1.70;;;435.70;1459.20;;;;;;5024214;28;20026;-72
2021/05/10 05:23:18;;;;;;;4.43;2.08;;;435.80;1433.60;;;;;;5024042;28;20030;-73
2021/05/10 05:25:44;;;;;;;5.13;1.80;;;436.00;1433.60;;;;;;5023663;28;20476;-73
2021/05/10 05:28:10;;;;;;;4.93;2.50;;;460.80;1433.60;;;;;;5008775;28;20053;-73
2021/05/10 05:30:35;;;;;;;4.00;1.85;;;460.80;1408.00;;;;;;5030744;28;20120;-72
2021/05/10 05:33:01;;;;;;;6.00;1.83;;;460.90;1408.00;;;;;;5026153;28;20022;-72
2021/05/10 05:35:27;;;;;;;4.13;2.13;;;461.10;1408.00;;;;;;5006366;28;20053;-72
2021/05/10 05:37:53;;;;;;;6.95;2.13;;;461.30;1382.40;;;;;;5027667;28;20026;-72
2021/05/10 05:40:19;;;;;;;4.70;2.50;;;461.40;1382.40;;;;;;5007199;28;20049;-72
2021/05/10 05:42:45;;;;;;;17.13;2.90;;;461.60;1356.80;;;;;;5026667;28;20370;-73
2021/05/10 05:45:12;;;;;;;7.78;2.53;;;461.70;1356.80;;;;;;5024429;28;20034;-72
2021/05/10 05:47:37;;;;;;;5.45;2.45;;;486.40;1331.20;;;;;;5006706;28;20028;-73
2021/05/10 05:50:03;;;;;;;5.15;2.03;;;486.50;1331.20;;;;;;5024359;28;20026;-74
2021/05/10 05:52:29;;;;;;;3.47;1.55;;;486.70;1331.20;;;;;;5026167;28;20398;-74
2021/05/10 05:54:55;;;;;;;2.78;1.70;;;486.80;1331.20;;;;;;5022801;28;20030;-74
2021/05/10 05:57:21;;;;;;;3.95;1.80;;;486.90;1305.60;;;;;;5006081;28;20068;-74
2021/05/10 05:59:47;;;;;;;3.10;2.13;;;486.90;1305.60;;;;;;5019109;28;20026;-74
2021/05/10 06:02:13;;;;;;;4.53;1.85;;;487.10;1280.00;;;;;;5025380;28;20025;-74
2021/05/10 06:04:39;;;;;;;9.68;2.35;;;512.00;1254.40;;;;;;5030654;28;20507;-74
2021/05/10 06:07:05;;;;;;;11.15;2.10;;;512.00;1228.80;;;;;;5013914;28;20033;-74
2021/05/10 06:09:30;;;;;;;5.57;1.92;;;512.00;1228.80;;;;;;5023727;28;20037;-74
2021/05/10 06:11:56;;;;;;;7.15;2.10;;;512.20;1203.20;;;;;;5019153;28;20037;-74
2021/05/10 06:14:22;;;;;;;3.88;2.15;;;512.30;1203.20;;;;;;5011060;28;20064;-74
2021/05/10 06:16:48;;;;;;;5.10;1.98;;;512.50;1203.20;;;;;;5029610;28;20034;-73
2021/05/10 06:19:14;;;;;;;5.35;1.90;;;512.70;1177.60;;;;;;5031836;28;20052;-74
2021/05/10 06:21:40;;;;;;;3.25;1.90;;;512.70;1177.60;;;;;;5021662;28;20042;-74
2021/05/10 06:24:07;;;;;;;3.00;1.90;;;512.90;1177.60;;;;;;5022505;28;20025;-74
2021/05/10 06:26:32;;;;;;;4.85;2.50;;;512.90;1177.60;;;;;;5029473;28;20540;-73
2021/05/10 06:28:58;;;;;;;8.18;2.47;;;537.70;1177.60;;;;;;5030837;28;20133;-74
2021/05/10 06:31:24;;;;;;;3.38;1.77;;;537.70;1177.60;;;;;;5025359;28;20033;-74
2021/05/10 06:33:50;;;;;;;8.00;2.30;;;538.00;1177.60;;;;;;5027672;28;20700;-73
2021/05/10 06:36:15;;;;;;;9.70;2.35;;;538.00;1152.00;;;;;;5026577;28;20792;-73
2021/05/10 06:38:41;;;;;;;5.65;2.72;;;538.00;1152.00;;;;;;5025447;28;20033;-73
2021/05/10 06:41:07;;;;;;;9.48;5.57;;;538.10;1152.00;;;;;;5030523;28;20033;-74
2021/05/10 06:43:32;;;;;;;11.95;4.47;;;538.30;1152.00;;;;;;5008927;28;20036;-75
2021/05/10 06:45:58;;;;;;;5.50;3.13;;;538.40;1126.40;;;;;;5033662;28;20038;-73
2021/05/10 06:48:29;;;;;;;8.60;4.28;;;563.40;1152.00;;;;;;5031251;28;20084;-73
2021/05/10 06:50:56;;;;;;;7.30;2.15;;;563.60;1126.40;;;;;;5027879;28;20022;-73
2021/05/10 06:53:22;;;;;;;12.98;2.53;;;563.50;1126.40;;;;;;5011690;28;20041;-73
2021/05/10 06:55:51;;;;;;;3.85;2.22;;;563.50;1126.40;;;;;;5023350;28;20026;-73
2021/05/10 06:58:17;;;;;;;7.32;2.47;;;563.50;1152.00;;;;;;5030539;28;20063;-74
2021/05/10 07:00:43;;;;;;;12.70;3.95;;;563.70;1100.80;;;;;;5041414;28;20029;-74
2021/05/10 07:03:09;;;;;;;7.25;3.17;;;564.00;1126.40;;;;;;5034559;28;20032;-74
2021/05/10 07:05:35;;;;;;;9.70;3.92;;;564.00;1100.80;;;;;;5044246;28;20041;-74
2021/05/10 07:08:17;;;;;;;9.68;4.63;;;588.80;1100.80;;;;;;5018891;28;20064;-74
2021/05/10 07:10:51;;;;;;;4.82;2.00;;;589.00;1075.20;;;;;;5026289;28;20032;-74
2021/05/10 07:13:17;;;;;;;8.45;2.22;;;588.90;1075.20;;;;;;5027223;28;20030;-74
2021/05/10 07:15:43;;;;;;;5.07;2.38;;;588.80;1075.20;;;;;;5027201;28;20022;-73
2021/05/10 07:18:13;;;;;;;8.60;3.13;;;564.10;1100.80;;;;;;5027277;28;20022;-74
2021/05/10 07:20:42;;;;;;;4.80;2.42;;;589.20;1075.20;;;;;;5011953;28;20033;-74
2021/05/10 07:23:09;;;;;;;3.72;3.05;;;589.30;1075.20;;;;;;5028959;28;20075;-74
2021/05/10 07:25:41;;;;;;;7.82;2.42;;;589.70;1075.20;;;;;;5031430;28;20124;-74
2021/05/10 07:28:08;;;;;;;5.43;3.10;;;614.40;1049.60;;;;;;5029459;28;20048;-74
2021/05/10 07:30:34;;;;;;;9.20;3.28;;;614.80;1049.60;;;;;;5019827;28;20033;-73
2021/05/10 07:32:59;;;;;;;8.98;2.58;;;614.60;1024.00;;;;;;4999209;28;20041;-73
2021/05/10 07:35:25;;;;;;;6.47;2.33;;;614.70;1024.00;;;;;;5028786;28;20156;-73
2021/05/10 07:37:51;;;;;;;6.10;3.00;;;614.70;1024.00;;;;;;5031362;28;20045;-73
2021/05/10 07:40:23;;;;;;;5.80;3.20;;;615.00;1024.00;;;;;;5026581;28;20025;-73
2021/05/10 07:42:49;;;;;;;6.45;2.67;;;614.90;998.40;;;;;;5031141;28;20049;-74
2021/05/10 07:45:15;;;;;;;3.83;3.00;;;614.80;998.40;;;;;;5023701;28;20026;-74
2021/05/10 07:47:41;;;;;;;6.28;3.55;;;614.90;1024.00;;;;;;5021308;28;20030;-73
2021/05/10 07:50:07;;;;;;;7.03;2.50;;;615.00;1024.00;;;;;;5023877;28;20025;-74
2021/05/10 07:52:33;;;;;;;4.57;2.55;;;615.30;998.40;;;;;;5029136;28;20033;-74
2021/05/10 07:54:59;;;;;;;4.25;2.50;;;615.30;998.40;;;;;;5012749;28;20068;-74
2021/05/10 07:57:25;;;;;;;6.07;2.55;;;640.00;998.40;;;;;;5026858;28;20060;-74
2021/05/10 07:59:54;;;;;;;4.85;2.22;;;640.30;998.40;;;;;;5023790;28;20072;-74
2021/05/10 08:02:22;;;;;;;4.63;2.65;;;640.50;998.40;;;;;;5029059;28;20109;-74
2021/05/10 08:04:50;;;;;;;10.95;3.65;;;640.10;998.40;;;;;;5027113;28;20072;-74
2021/05/10 08:07:16;;;;;;;3.00;2.10;;;640.50;998.40;;;;;;5009967;28;20045;-75
2021/05/10 08:09:42;;;;;;;4.57;2.67;;;640.70;998.40;;;;;;5030088;28;20022;-74
2021/05/10 08:12:09;;;;;;;5.88;2.83;;;665.60;998.40;;;;;;5027173;28;20037;-74
2021/05/10 08:14:35;;;;;;;8.70;3.85;;;665.60;972.80;;;;;;5032190;28;20029;-74
2021/05/10 08:17:02;;;;;;;3.63;2.90;;;665.80;972.80;;;;;;5031962;28;20033;-74
2021/05/10 08:19:28;;;;;;;3.75;2.50;;;665.80;972.80;;;;;;5024433;28;20030;-74
2021/05/10 08:21:58;;;;;;;7.95;2.90;;;666.20;947.20;;;;;;5027345;28;20478;-74
2021/05/10 08:24:24;;;;;;;5.47;2.70;;;666.20;947.20;;;;;;5016340;28;20029;-73
2021/05/10 08:26:50;;;;;;;6.28;2.75;;;666.30;947.20;;;;;;5024333;28;20014;-74
2021/05/10 08:29:17;;;;;;;8.20;3.05;;;666.30;972.80;;;;;;5008764;28;20048;-75
2021/05/10 08:31:45;;;;;;;5.97;3.00;;;666.50;947.20;;;;;;5013003;28;20030;-74
2021/05/10 08:34:11;;;;;;;10.32;3.25;;;666.50;947.20;;;;;;5027523;28;20045;-75
2021/05/10 08:36:37;;;;;;;9.98;8.10;;;666.50;947.20;;;;;;5012977;28;20028;-74
2021/05/10 08:39:08;;;;;;;7.70;4.45;;;691.70;947.20;;;;;;5011067;28;20390;-74
2021/05/10 08:41:34;;;;;;;5.85;3.90;;;692.00;921.60;;;;;;5012730;28;20049;-74
2021/05/10 08:44:03;;;;;;;9.70;4.18;;;692.00;921.60;;;;;;5010851;28;20025;-74
2021/05/10 08:46:29;;;;;;;6.75;3.13;;;716.80;921.60;;;;;;5023910;28;20065;-74
2021/05/10 08:48:55;;;;;;;4.22;2.92;;;716.80;947.20;;;;;;5025257;28;20099;-74
2021/05/10 08:51:21;;;;;;;6.53;3.40;;;716.80;921.60;;;;;;5023149;28;20450;-74
2021/05/10 08:53:47;;;;;;;6.63;3.30;;;717.10;921.60;;;;;;5023517;28;20462;-73
2021/05/10 08:56:13;;;;;;;10.23;4.93;;;717.00;921.60;;;;;;5008318;28;20838;-73
2021/05/10 08:58:40;;;;;;;6.97;3.70;;;717.10;896.00;;;;;;5031112;28;20030;-73
2021/05/10 09:01:06;;;;;;;5.82;2.88;;;717.00;921.60;;;;;;5015347;28;20071;-74
2021/05/10 09:03:34;;;;;;;5.78;3.28;;;717.40;896.00;;;;;;5023594;28;20033;-73
2021/05/10 09:06:01;;;;;;;10.88;3.40;;;717.50;896.00;;;;;;5026335;28;20026;-74
2021/05/10 09:08:36;;;;;;;4.82;3.20;;;742.40;921.60;;;;;;5002569;28;20568;-76
2021/05/10 09:11:12;;;;;;;7.13;3.17;;;742.70;870.40;;;;;;5025364;28;20123;-75
2021/05/10 09:13:39;;;;;;;6.78;3.67;;;742.90;844.80;;;;;;5022398;28;20018;-74
2021/05/10 09:16:05;;;;;;;6.38;3.13;;;742.80;896.00;;;;;;5014337;28;20034;-74
2021/05/10 09:18:32;;;;;;;7.13;3.40;;;768.10;844.80;;;;;;5026095;28;20049;-75
2021/05/10 09:21:17;;;;;;;8.05;3.60;;;743.10;870.40;;;;;;5023618;28;20124;-74
2021/05/10 09:23:43;;;;;;;5.90;4.20;;;743.10;870.40;;;;;;5022589;28;20520;-75
2021/05/10 09:26:12;;;;;;;7.25;3.00;;;743.30;844.80;;;;;;5009470;28;20060;-75
2021/05/10 09:28:40;;;;;;;4.85;2.83;;;768.10;844.80;;;;;;5006290;28;20038;-75
2021/05/10 09:31:09;;;;;;;5.03;3.03;;;768.50;819.20;;;;;;5026194;28;20090;-75
2021/05/10 09:33:40;;;;;;;6.25;3.42;;;768.40;819.20;;;;;;5023367;28;20026;-74
2021/05/10 09:36:07;;;;;;;6.05;4.03;;;793.60;844.80;;;;;;5011513;28;20038;-75
2021/05/10 09:38:35;;;;;;;6.55;3.53;;;793.90;844.80;;;;;;5024742;28;20014;-74
2021/05/10 09:41:02;;;;;;;9.50;3.38;;;794.30;819.20;;;;;;5022913;28;20060;-75
2021/05/10 09:43:31;;;;;;;8.20;3.53;;;793.70;844.80;;;;;;5012778;28;20957;-75
2021/05/10 09:45:59;;;;;;;5.68;3.08;;;794.10;844.80;;;;;;5007089;28;20061;-76
2021/05/10 09:48:29;;;;;;;4.05;3.17;;;794.10;844.80;;;;;;5009625;28;20037;-75
2021/05/10 09:51:01;;;;;;;6.40;3.20;;;794.40;844.80;;;;;;5010791;28;20068;-76
2021/05/10 09:53:32;;;;;;;4.70;3.47;;;794.10;844.80;;;;;;5006048;28;20049;-76
2021/05/10 09:55:58;;;;;;;5.03;3.42;;;793.60;819.20;;;;;;5010981;28;20110;-76
2021/05/10 09:58:35;;;;;;;6.40;4.53;;;819.30;819.20;;;;;;5015460;28;20498;-76
2021/05/10 10:01:01;;;;;;;4.55;3.03;;;819.70;819.20;;;;;;5023567;28;20032;-76
2021/05/10 10:03:31;;;;;;;7.05;3.25;;;819.80;819.20;;;;;;5011589;28;20042;-76
2021/05/10 10:05:59;;;;;;;4.63;2.90;;;820.10;793.60;;;;;;5022897;28;20104;-76
2021/05/10 10:08:25;;;;;;;9.55;5.13;;;845.10;819.20;;;;;;5004230;28;20041;-76
2021/05/10 10:10:51;;;;;;;5.63;3.10;;;845.00;793.60;;;;;;5009130;28;20028;-76
2021/05/10 10:13:18;;;;;;;4.38;3.28;;;845.60;768.00;;;;;;5022820;28;20017;-76
2021/05/10 10:15:46;;;;;;;5.82;3.53;;;870.70;768.00;;;;;;5021936;28;20446;-77
2021/05/10 10:18:17;;;;;;;5.88;3.15;;;845.40;819.20;;;;;;5013555;28;20013;-77
2021/05/10 10:20:45;;;;;;;4.93;3.30;;;845.40;793.60;;;;;;5026947;28;20494;-76
2021/05/10 10:23:13;;;;;;;5.38;3.38;;;845.50;768.00;;;;;;5022883;28;20378;-77
2021/05/10 10:25:41;;;;;;;4.82;3.40;;;845.60;768.00;;;;;;5005480;28;21694;-77
2021/05/10 10:28:07;;;;;;;5.88;3.38;;;845.10;793.60;;;;;;5003627;28;20021;-76
2021/05/10 10:30:38;;;;;;;6.68;3.53;;;844.90;793.60;;;;;;5012839;28;20042;-76
2021/05/10 10:33:24;;;;;;;7.10;3.55;;;844.90;819.20;;;;;;5027901;28;20121;-76
2021/05/10 10:35:50;;;;;;;4.85;3.50;;;845.50;793.60;;;;;;5009909;28;20440;-76
2021/05/10 10:38:29;;;;;;;6.38;4.10;;;870.90;716.80;;;;;;5032014;28;20026;-76
2021/05/10 10:41:17;;;;;;;4.00;2.95;;;870.90;742.40;;;;;;5033721;28;20053;-75
2021/05/10 10:43:43;;;;;;;4.68;3.75;;;870.60;768.00;;;;;;5011222;28;20048;-76
2021/05/10 10:46:25;;;;;;;8.15;3.10;;;871.10;716.80;;;;;;5017532;28;20132;-76
2021/05/10 10:48:54;;;;;;;8.88;4.85;;;870.60;742.40;;;;;;5007634;28;20031;-75
2021/05/10 10:51:20;;;;;;;9.95;4.20;;;870.80;742.40;;;;;;5022731;28;20025;-75
2021/05/10 10:53:54;;;;;;;9.95;7.43;;;871.10;716.80;;;;;;5013520;28;20489;-76
2021/05/10 10:57:06;;;;;;;7.55;3.92;;;896.10;716.80;;;;;;5011127;28;20009;-76
2021/05/10 10:59:36;;;;;;;6.40;4.60;;;870.90;716.80;;;;;;5013404;28;20034;-75
2021/05/10 11:02:29;;;;;;;4.95;3.63;;;871.10;716.80;;;;;;5014381;28;20038;-75
2021/05/10 11:05:07;;;;;;;5.88;3.70;;;870.80;716.80;;;;;;5027514;28;20104;-75
2021/05/10 11:07:46;;;;;;;5.15;3.80;;;871.10;716.80;;;;;;5018006;28;20567;-75
2021/05/10 11:10:12;;;;;;;6.32;3.55;;;896.00;691.20;;;;;;5025486;28;20029;-75
2021/05/10 11:12:54;;;;;;;4.40;2.70;;;870.60;716.80;;;;;;5014945;28;20033;-75
2021/05/10 11:15:36;;;;;;;5.45;3.47;;;871.20;716.80;;;;;;5018189;28;20132;-76
2021/05/10 11:18:06;;;;;;;5.80;3.72;;;845.10;768.00;;;;;;5013092;28;20018;-76
2021/05/10 11:20:42;;;;;;;7.53;4.95;;;871.00;716.80;;;;;;5026227;28;20079;-76
2021/05/10 11:23:23;;;;;;;6.13;4.00;;;896.10;716.80;;;;;;5013846;28;20113;-75
2021/05/10 11:25:53;;;;;;;4.47;3.53;;;896.40;691.20;;;;;;5009370;28;20034;-75
2021/05/10 11:28:25;;;;;;;6.68;4.32;;;896.30;691.20;;;;;;5027930;28;20030;-76
2021/05/10 11:31:10;;;;;;;6.85;3.95;;;896.10;716.80;;;;;;5028549;28;20048;-75
2021/05/10 11:33:52;;;;;;;4.07;3.05;;;871.10;716.80;;;;;;5011948;28;20544;-76
2021/05/10 11:36:24;;;;;;;8.90;4.68;;;871.00;716.80;;;;;;5014992;28;20026;-76
2021/05/10 11:38:54;;;;;;;7.93;4.20;;;870.40;742.40;;;;;;5015840;28;20026;-76
2021/05/10 11:41:30;;;;;;;6.50;5.35;;;870.80;716.80;;;;;;5030662;28;20041;-76
2021/05/10 11:44:01;;;;;;;6.88;4.75;;;870.90;716.80;;;;;;5028898;28;20104;-76
2021/05/10 11:46:42;;;;;;;6.18;4.30;;;870.90;716.80;;;;;;5013109;28;20040;-76
2021/05/10 11:49:23;;;;;;;6.63;4.03;;;871.20;716.80;;;;;;5029916;28;20029;-76
2021/05/10 11:51:49;;;;;;;4.10;3.22;;;896.20;691.20;;;;;;5026894;28;20029;-75
2021/05/10 11:54:15;;;;;;;4.68;3.53;;;896.60;665.60;;;;;;5014141;28;20037;-77
2021/05/10 11:56:46;;;;;;;8.13;4.15;;;896.00;691.20;;;;;;5009145;28;20052;-76
2021/05/10 12:01:50;;;;;;;9.63;6.47;;;921.90;691.20;;;;;;5024315;28;20033;-75
2021/05/10 12:04:17;;;;;;;6.13;3.38;;;921.60;691.20;;;;;;5013377;28;20029;-76
2021/05/10 12:06:43;;;;;;;5.95;2.97;;;896.70;665.60;;;;;;5014520;28;20486;-75
2021/05/10 12:09:49;;;;;;;7.43;3.35;;;896.40;691.20;;;;;;5013508;28;20026;-75
2021/05/10 12:12:17;;;;;;;12.65;4.78;;;921.90;665.60;;;;;;5009862;28;20542;-75
2021/05/10 12:14:45;;;;;;;10.90;4.97;;;922.30;640.00;;;;;;5013454;28;20729;-75
2021/05/10 12:17:17;;;;;;;6.47;4.22;;;947.20;665.60;;;;;;5026648;28;20028;-75
2021/05/10 12:20:03;;;;;;;4.72;3.20;;;947.70;640.00;;;;;;5008456;28;20034;-75
2021/05/10 12:22:44;;;;;;;7.22;3.55;;;896.30;691.20;;;;;;5022270;28;20028;-76
2021/05/10 12:25:29;;;;;;;9.52;6.40;;;922.00;691.20;;;;;;5024553;28;20032;-77
2021/05/10 12:27:54;;;;;;;9.60;4.88;;;947.20;665.60;;;;;;5016217;28;20211;-77
2021/05/10 12:30:30;;;;;;;5.95;4.53;;;947.30;640.00;;;;;;5004777;28;20403;-77
2021/05/10 12:32:58;;;;;;;6.20;3.10;;;947.70;640.00;;;;;;5003372;28;20053;-77